Time;durP1;ratioP1;P1;durP2;ratioP2;P2;SDS_P1;SDS_P2;PMS_P1;PMS_P2;Temp;Humidity;BMP_temperature;BMP_pressure;BME280_temperature;BME280_humidity;BME280_pressure;Samples;Min_cycle;Max_cycle;Signal;HPM_P1;HPM_P2
2021/07/21 00:00:18;;;;;;;12.25;7.85;;;24.60;99.90;;;;;;5112316;28;20525;-69
2021/07/21 00:02:44;;;;;;;20.33;8.25;;;24.60;99.90;;;;;;5112289;28;20031;-69
2021/07/21 00:05:12;;;;;;;13.50;8.57;;;24.70;99.90;;;;;;5110680;28;20487;-69
2021/07/21 00:07:38;;;;;;;12.68;9.10;;;24.70;99.90;;;;;;5111776;28;20020;-70
2021/07/21 00:10:06;;;;;;;10.70;6.30;;;24.70;99.90;;;;;;5110219;28;20366;-71
2021/07/21 00:15:18;;;;;;;14.73;8.35;;;24.60;99.90;;;;;;5111765;28;20042;-69
2021/07/21 00:17:45;;;;;;;7.40;6.70;;;24.50;99.90;;;;;;5111571;28;20105;-69
2021/07/21 00:20:12;;;;;;;11.65;7.63;;;24.50;99.90;;;;;;5111664;28;20011;-70
2021/07/21 00:22:41;;;;;;;12.07;7.78;;;24.50;99.90;;;;;;5111575;28;20106;-70
2021/07/21 00:25:10;;;;;;;10.13;8.43;;;24.40;99.90;;;;;;5110438;28;20099;-72
2021/07/21 00:27:37;;;;;;;11.82;7.70;;;24.40;99.90;;;;;;5104903;28;20031;-69
2021/07/21 00:30:06;;;;;;;12.98;8.25;;;24.40;99.90;;;;;;5111546;28;20422;-69
2021/07/21 00:32:32;;;;;;;9.13;7.47;;;24.40;99.90;;;;;;5110131;28;20031;-70
2021/07/21 00:34:58;;;;;;;10.80;7.80;;;24.40;99.90;;;;;;5111786;28;20145;-70
2021/07/21 00:37:23;;;;;;;15.32;8.45;;;24.40;99.90;;;;;;5109995;28;20520;-70
2021/07/21 00:39:49;;;;;;;9.93;8.27;;;24.40;99.90;;;;;;5111808;28;20050;-70
2021/07/21 00:42:15;;;;;;;12.27;8.85;;;24.30;99.90;;;;;;5110638;28;20024;-69
2021/07/21 00:44:41;;;;;;;12.13;8.95;;;24.20;99.90;;;;;;5111837;28;20028;-69
2021/07/21 00:47:07;;;;;;;9.15;8.05;;;24.30;99.90;;;;;;5111422;28;20031;-70
2021/07/21 00:49:32;;;;;;;17.10;10.20;;;24.20;99.90;;;;;;5112939;28;20057;-71
2021/07/21 00:51:59;;;;;;;14.65;8.68;;;24.20;99.90;;;;;;5113437;28;20024;-71
2021/07/21 00:54:25;;;;;;;13.23;9.07;;;24.20;99.90;;;;;;5115319;28;20538;-71
2021/07/21 00:56:52;;;;;;;8.95;8.05;;;24.20;99.90;;;;;;5112649;28;20035;-70
2021/07/21 00:59:19;;;;;;;10.05;9.05;;;24.10;99.90;;;;;;5110186;28;20024;-70
2021/07/21 01:01:44;;;;;;;11.05;8.70;;;24.20;99.90;;;;;;5115672;28;20062;-71
2021/07/21 01:04:10;;;;;;;14.05;9.23;;;24.10;99.90;;;;;;5120957;28;20389;-70
2021/07/21 01:06:39;;;;;;;10.80;9.68;;;24.10;99.90;;;;;;5119439;28;20056;-70
2021/07/21 01:09:06;;;;;;;11.90;9.27;;;24.10;99.90;;;;;;5119226;28;20500;-70
2021/07/21 01:11:43;;;;;;;13.00;9.50;;;24.10;99.90;;;;;;5112327;28;20526;-70
2021/07/21 01:14:47;;;;;;;16.50;8.93;;;24.20;99.90;;;;;;5110231;28;20114;-69
2021/07/21 01:17:36;;;;;;;12.85;9.35;;;24.20;99.90;;;;;;5111588;28;20024;-70
2021/07/21 01:20:30;;;;;;;11.15;9.38;;;24.10;99.90;;;;;;5109987;28;20024;-70
2021/07/21 01:23:25;;;;;;;11.10;9.48;;;24.10;99.90;;;;;;5109955;28;20016;-68
2021/07/21 01:25:57;;;;;;;13.82;10.02;;;24.10;99.90;;;;;;5111052;28;20481;-70
2021/07/21 01:28:29;;;;;;;11.95;9.90;;;24.10;99.90;;;;;;5112683;28;20154;-68
2021/07/21 01:30:58;;;;;;;10.52;9.52;;;24.10;99.90;;;;;;5115324;28;20378;-69
2021/07/21 01:33:25;;;;;;;11.57;10.20;;;24.10;99.90;;;;;;5113917;28;20028;-69
2021/07/21 01:35:57;;;;;;;11.93;9.88;;;24.00;99.90;;;;;;5113811;28;20481;-69
2021/07/21 01:38:27;;;;;;;12.48;9.93;;;24.00;99.90;;;;;;5114783;28;20092;-68
2021/07/21 01:40:56;;;;;;;14.37;11.73;;;24.00;99.90;;;;;;5113474;28;20438;-71
2021/07/21 01:43:26;;;;;;;13.93;9.73;;;23.90;99.90;;;;;;5115010;28;20051;-69
2021/07/21 01:45:55;;;;;;;10.45;9.15;;;23.90;99.90;;;;;;5115019;28;20076;-69
2021/07/21 01:48:23;;;;;;;10.95;9.27;;;23.90;99.90;;;;;;5113213;28;20451;-70
2021/07/21 01:50:54;;;;;;;20.05;10.98;;;23.90;99.90;;;;;;5114809;28;20401;-69
2021/07/21 01:53:21;;;;;;;15.90;10.40;;;23.90;99.90;;;;;;5113242;28;20169;-69
2021/07/21 01:55:47;;;;;;;12.90;9.98;;;23.90;99.90;;;;;;5114670;27;20027;-69
2021/07/21 01:58:14;;;;;;;12.18;9.65;;;23.90;99.90;;;;;;5113078;28;20169;-70
2021/07/21 02:00:41;;;;;;;17.58;10.77;;;23.90;99.90;;;;;;5114651;28;20034;-71
2021/07/21 02:03:08;;;;;;;14.57;10.98;;;23.90;99.90;;;;;;5113401;28;20020;-71
2021/07/21 02:05:35;;;;;;;13.20;10.35;;;23.90;99.90;;;;;;5114972;28;20038;-71
2021/07/21 02:08:01;;;;;;;10.82;9.90;;;23.80;99.90;;;;;;5114211;28;20142;-71
2021/07/21 02:10:30;;;;;;;12.40;10.65;;;23.90;99.90;;;;;;5112919;28;20042;-70
2021/07/21 02:13:10;;;;;;;12.48;10.05;;;23.80;99.90;;;;;;5114446;28;20077;-70
2021/07/21 02:15:36;;;;;;;10.65;9.55;;;23.90;99.90;;;;;;5114450;28;20027;-70
2021/07/21 02:18:02;;;;;;;12.88;9.70;;;23.80;99.90;;;;;;5112451;28;20032;-70
2021/07/21 02:20:29;;;;;;;11.63;10.43;;;23.80;99.90;;;;;;5112766;28;20030;-70
2021/07/21 02:22:55;;;;;;;14.70;9.30;;;23.80;99.90;;;;;;5112732;28;20020;-70
2021/07/21 02:25:23;;;;;;;16.48;10.68;;;23.80;99.90;;;;;;5112735;28;20022;-70
2021/07/21 02:27:49;;;;;;;9.93;9.00;;;23.70;99.90;;;;;;5105332;28;20063;-70
2021/07/21 02:30:16;;;;;;;13.88;9.55;;;23.70;99.90;;;;;;5112647;28;20051;-69
2021/07/21 02:32:52;;;;;;;11.90;9.80;;;23.70;99.90;;;;;;5113842;28;20575;-70
2021/07/21 02:35:21;;;;;;;12.77;9.52;;;23.70;99.90;;;;;;5112488;28;20051;-70
2021/07/21 02:37:48;;;;;;;15.95;10.07;;;23.70;99.90;;;;;;5113796;28;20027;-70
2021/07/21 02:40:16;;;;;;;9.88;8.82;;;23.70;99.90;;;;;;5113277;28;20099;-70
2021/07/21 02:42:42;;;;;;;17.60;10.38;;;23.80;99.90;;;;;;5113657;28;20031;-69
2021/07/21 02:45:08;;;;;;;10.60;9.50;;;23.80;99.90;;;;;;5112508;28;20016;-71
2021/07/21 02:47:34;;;;;;;13.25;9.57;;;23.70;99.90;;;;;;5112528;28;20058;-70
2021/07/21 02:50:00;;;;;;;12.52;10.07;;;23.70;99.90;;;;;;5114370;28;20429;-71
2021/07/21 02:52:31;;;;;;;14.00;10.60;;;23.70;99.90;;;;;;5114721;28;20028;-70
2021/07/21 02:55:28;;;;;;;13.40;9.70;;;23.70;99.90;;;;;;5112955;28;20028;-71
2021/07/21 02:58:09;;;;;;;15.00;9.52;;;23.70;99.90;;;;;;5114149;28;20090;-70
2021/07/21 03:00:35;;;;;;;13.65;10.07;;;23.70;99.90;;;;;;5113875;28;20099;-70
2021/07/21 03:03:11;;;;;;;11.25;10.13;;;23.70;99.90;;;;;;5112387;28;20023;-70
2021/07/21 03:05:37;;;;;;;11.25;9.68;;;23.70;99.90;;;;;;5113660;28;20015;-70
2021/07/21 03:08:04;;;;;;;14.07;9.48;;;23.70;99.90;;;;;;5112008;28;20028;-69
2021/07/21 03:10:31;;;;;;;10.75;8.95;;;23.60;99.90;;;;;;5113187;28;20070;-69
2021/07/21 03:13:02;;;;;;;13.13;10.68;;;23.60;99.90;;;;;;5113456;28;20051;-70
2021/07/21 03:15:31;;;;;;;12.88;9.13;;;23.70;99.90;;;;;;5113595;28;20104;-69
2021/07/21 03:17:59;;;;;;;10.80;9.65;;;23.60;99.90;;;;;;5111477;28;20084;-69
2021/07/21 03:20:26;;;;;;;11.60;9.57;;;23.60;99.90;;;;;;5111924;28;20015;-70
2021/07/21 03:22:55;;;;;;;12.85;10.13;;;23.60;99.90;;;;;;5113285;28;20024;-69
2021/07/21 03:25:22;;;;;;;12.20;10.07;;;23.50;99.90;;;;;;5114381;28;20023;-70
2021/07/21 03:27:51;;;;;;;14.00;10.13;;;23.50;99.90;;;;;;5113630;28;20024;-70
2021/07/21 03:30:18;;;;;;;16.17;10.38;;;23.50;99.90;;;;;;5113427;28;20028;-70
2021/07/21 03:32:46;;;;;;;13.90;9.75;;;23.40;99.90;;;;;;5113160;28;20110;-70
2021/07/21 03:35:12;;;;;;;15.95;10.35;;;23.40;99.90;;;;;;5112525;28;20408;-71
2021/07/21 03:37:41;;;;;;;12.00;10.35;;;23.30;99.90;;;;;;5115080;28;20053;-71
2021/07/21 03:40:08;;;;;;;12.13;10.15;;;23.30;99.90;;;;;;5118407;28;20020;-69
2021/07/21 03:42:35;;;;;;;12.30;10.48;;;23.30;99.90;;;;;;5118296;28;20028;-70
2021/07/21 03:45:07;;;;;;;17.05;10.88;;;23.40;99.90;;;;;;5114150;28;20055;-70
2021/07/21 03:47:35;;;;;;;13.13;10.40;;;23.30;99.90;;;;;;5121128;28;20030;-70
2021/07/21 03:50:04;;;;;;;14.13;10.05;;;23.40;99.90;;;;;;5124896;28;20028;-70
2021/07/21 03:52:33;;;;;;;13.95;9.65;;;23.40;99.90;;;;;;5125421;28;20516;-70
2021/07/21 03:54:59;;;;;;;9.88;8.85;;;23.40;99.90;;;;;;5125891;28;20023;-70
2021/07/21 03:57:25;;;;;;;13.85;11.05;;;23.40;99.90;;;;;;5127470;28;20057;-70
2021/07/21 03:59:51;;;;;;;11.75;9.57;;;23.30;99.90;;;;;;5126840;28;20032;-70
2021/07/21 04:02:18;;;;;;;12.27;10.70;;;23.30;99.90;;;;;;5124623;28;20027;-71
2021/07/21 04:04:46;;;;;;;12.05;9.23;;;23.30;99.90;;;;;;5124218;28;20136;-70
2021/07/21 04:07:16;;;;;;;12.18;10.90;;;23.30;99.90;;;;;;5125459;28;20027;-71
2021/07/21 04:09:45;;;;;;;12.18;10.85;;;23.30;99.90;;;;;;5124027;28;20031;-69
2021/07/21 04:12:13;;;;;;;16.63;9.82;;;23.30;99.90;;;;;;5121447;28;20039;-70
2021/07/21 04:14:41;;;;;;;14.30;10.60;;;23.30;99.90;;;;;;5112796;28;20024;-70
2021/07/21 04:17:07;;;;;;;12.68;11.38;;;23.40;99.90;;;;;;5110704;28;20155;-70
2021/07/21 04:19:33;;;;;;;23.27;12.02;;;23.40;99.90;;;;;;5110984;28;20024;-70
2021/07/21 04:21:59;;;;;;;13.95;11.07;;;23.40;99.90;;;;;;5112097;28;20016;-69
2021/07/21 04:24:25;;;;;;;12.70;10.88;;;23.50;99.90;;;;;;5110494;28;20020;-70
2021/07/21 04:26:52;;;;;;;11.98;10.57;;;23.50;99.90;;;;;;5111110;28;20376;-69
2021/07/21 04:29:24;;;;;;;12.82;11.48;;;23.50;99.90;;;;;;5110276;28;20042;-70
2021/07/21 04:31:50;;;;;;;15.20;12.57;;;23.50;99.90;;;;;;5112068;28;20043;-69
2021/07/21 04:34:17;;;;;;;12.02;10.48;;;23.60;99.90;;;;;;5110432;28;20102;-69
2021/07/21 04:36:44;;;;;;;12.43;10.73;;;23.50;99.90;;;;;;5110295;28;20108;-69
2021/07/21 04:39:16;;;;;;;15.45;10.55;;;23.60;99.90;;;;;;5111695;28;20030;-69
2021/07/21 04:41:43;;;;;;;14.02;11.20;;;23.70;99.90;;;;;;5111883;28;20020;-70
2021/07/21 04:44:09;;;;;;;15.57;10.73;;;23.70;99.90;;;;;;5112010;28;20024;-70
2021/07/21 04:46:35;;;;;;;10.93;9.93;;;23.70;99.90;;;;;;5110408;28;20362;-69
2021/07/21 04:49:02;;;;;;;10.50;9.48;;;23.70;99.90;;;;;;5111955;28;20050;-70
2021/07/21 04:51:30;;;;;;;10.82;9.82;;;23.60;99.90;;;;;;5111911;28;20023;-70
2021/07/21 04:54:03;;;;;;;16.67;10.77;;;23.50;99.90;;;;;;5110270;28;20114;-71
2021/07/21 04:56:28;;;;;;;14.98;13.18;;;23.50;99.90;;;;;;5110205;28;20495;-71
2021/07/21 04:58:54;;;;;;;13.13;11.23;;;23.50;99.90;;;;;;5111201;28;20281;-70
2021/07/21 05:01:21;;;;;;;13.45;11.13;;;23.60;99.90;;;;;;5109979;28;20085;-70
2021/07/21 05:03:47;;;;;;;14.23;10.60;;;23.60;99.90;;;;;;5111743;28;20069;-70
2021/07/21 05:06:13;;;;;;;11.45;10.32;;;23.60;99.90;;;;;;5110868;28;20028;-69
2021/07/21 05:08:39;;;;;;;11.48;10.32;;;23.60;99.90;;;;;;5109838;28;20027;-71
2021/07/21 05:11:05;;;;;;;19.85;11.65;;;23.60;99.90;;;;;;5110881;28;20026;-71
2021/07/21 05:13:32;;;;;;;16.25;11.80;;;23.70;99.90;;;;;;5111210;28;20092;-70
2021/07/21 05:15:59;;;;;;;13.73;12.27;;;23.60;99.90;;;;;;5111068;28;20019;-70
2021/07/21 05:18:25;;;;;;;14.65;11.45;;;23.70;99.90;;;;;;5110754;28;20028;-69
2021/07/21 05:20:51;;;;;;;13.68;11.55;;;23.70;99.90;;;;;;5110103;28;20022;-71
2021/07/21 05:23:17;;;;;;;13.55;12.10;;;23.90;99.90;;;;;;5110522;28;20165;-70
2021/07/21 05:25:42;;;;;;;15.10;12.02;;;23.80;99.90;;;;;;5114772;28;20043;-69
2021/07/21 05:28:08;;;;;;;16.75;13.30;;;23.80;99.90;;;;;;5121406;28;20028;-69
2021/07/21 05:30:35;;;;;;;15.77;12.10;;;23.90;99.90;;;;;;5121312;28;20027;-70
2021/07/21 05:33:01;;;;;;;15.07;11.80;;;23.90;99.90;;;;;;5119848;28;20382;-70
2021/07/21 05:35:27;;;;;;;14.48;12.15;;;24.00;99.90;;;;;;5113298;28;20024;-70
2021/07/21 05:37:54;;;;;;;12.48;11.13;;;24.10;99.90;;;;;;5112765;28;20026;-72
2021/07/21 05:40:20;;;;;;;13.82;12.32;;;24.20;99.90;;;;;;5113032;28;20106;-70
2021/07/21 05:42:46;;;;;;;13.18;11.98;;;24.30;99.90;;;;;;5110199;28;20058;-70
2021/07/21 05:45:11;;;;;;;18.20;11.52;;;24.40;99.90;;;;;;5111878;28;20015;-70
2021/07/21 05:47:37;;;;;;;14.23;12.30;;;24.60;99.90;;;;;;5109470;28;20028;-71
2021/07/21 05:50:04;;;;;;;18.40;12.15;;;24.60;99.90;;;;;;5111015;28;20051;-71
2021/07/21 05:52:30;;;;;;;15.88;12.75;;;24.80;99.90;;;;;;5111057;28;20027;-70
2021/07/21 05:54:56;;;;;;;13.60;12.23;;;24.90;99.90;;;;;;5111981;28;20028;-70
2021/07/21 05:57:21;;;;;;;18.92;14.38;;;25.00;99.90;;;;;;5110482;28;20492;-70
2021/07/21 05:59:47;;;;;;;14.70;13.20;;;25.00;99.90;;;;;;5110628;28;20045;-72
2021/07/21 06:02:13;;;;;;;16.92;13.05;;;25.00;99.90;;;;;;5109401;28;20080;-71
2021/07/21 06:04:39;;;;;;;16.80;13.05;;;25.10;99.90;;;;;;5111266;28;20016;-71
2021/07/21 06:07:07;;;;;;;20.73;12.77;;;25.10;99.90;;;;;;5110680;28;20051;-71
2021/07/21 06:09:33;;;;;;;14.23;12.20;;;25.00;99.90;;;;;;5111467;28;20024;-71
2021/07/21 06:11:59;;;;;;;14.48;12.88;;;25.10;99.90;;;;;;5110924;28;20538;-71
2021/07/21 06:14:25;;;;;;;16.67;12.55;;;25.10;99.90;;;;;;5111702;28;20032;-70
2021/07/21 06:16:52;;;;;;;16.33;11.70;;;25.20;99.90;;;;;;5113574;28;20020;-69
2021/07/21 06:19:18;;;;;;;15.98;12.70;;;25.30;99.90;;;;;;5114466;28;20481;-71
2021/07/21 06:21:44;;;;;;;17.30;13.63;;;25.30;99.90;;;;;;5114403;28;20075;-70
2021/07/21 06:24:10;;;;;;;21.20;12.63;;;25.40;99.90;;;;;;5114551;28;20027;-71
2021/07/21 06:26:36;;;;;;;14.60;13.10;;;25.50;99.90;;;;;;5113832;28;20024;-71
2021/07/21 06:29:03;;;;;;;14.00;12.52;;;25.60;99.90;;;;;;5106451;28;20397;-70
2021/07/21 06:31:28;;;;;;;18.25;13.48;;;25.70;99.90;;;;;;5112424;28;20024;-70
2021/07/21 06:33:54;;;;;;;13.43;11.93;;;25.80;99.90;;;;;;5112789;28;20026;-69
2021/07/21 06:36:20;;;;;;;19.27;13.45;;;25.90;99.90;;;;;;5113929;28;20449;-71
2021/07/21 06:38:46;;;;;;;17.67;14.52;;;26.00;99.90;;;;;;5113710;28;20397;-71
2021/07/21 06:41:13;;;;;;;23.55;14.77;;;26.10;99.90;;;;;;5113937;28;20023;-71
2021/07/21 06:43:40;;;;;;;17.25;12.95;;;26.20;99.90;;;;;;5113831;28;20023;-71
2021/07/21 06:46:06;;;;;;;13.40;12.15;;;26.10;99.90;;;;;;5112441;28;20116;-70
2021/07/21 06:48:32;;;;;;;14.93;13.38;;;26.20;99.90;;;;;;5113622;28;20051;-70
2021/07/21 06:50:58;;;;;;;16.30;13.25;;;26.30;99.90;;;;;;5113718;28;20076;-72
2021/07/21 06:53:24;;;;;;;16.05;14.43;;;26.40;99.90;;;;;;5112317;28;20024;-70
2021/07/21 06:55:49;;;;;;;16.70;15.13;;;26.50;99.90;;;;;;5113347;28;20027;-70
2021/07/21 06:58:15;;;;;;;15.85;13.50;;;26.60;99.90;;;;;;5114050;28;20099;-70
2021/07/21 07:00:41;;;;;;;14.13;12.80;;;26.80;99.90;;;;;;5112505;28;20561;-70
2021/07/21 07:03:07;;;;;;;17.58;15.88;;;26.90;99.90;;;;;;5113725;28;20070;-71
2021/07/21 07:05:33;;;;;;;15.57;12.90;;;26.90;99.90;;;;;;5113411;28;20032;-70
2021/07/21 07:07:58;;;;;;;14.70;13.18;;;26.80;99.90;;;;;;5113166;28;20508;-70
2021/07/21 07:10:24;;;;;;;14.43;13.13;;;26.80;99.90;;;;;;5112845;28;20032;-69
2021/07/21 07:12:50;;;;;;;15.82;14.23;;;26.90;99.90;;;;;;5113249;28;20027;-71
2021/07/21 07:15:16;;;;;;;18.23;13.40;;;26.90;99.90;;;;;;5113094;28;20397;-69
2021/07/21 07:17:42;;;;;;;20.83;14.18;;;26.80;99.90;;;;;;5111382;28;20169;-70
2021/07/21 07:20:09;;;;;;;15.93;14.02;;;26.90;99.90;;;;;;5112865;28;20458;-72
2021/07/21 07:22:34;;;;;;;18.85;15.15;;;27.10;99.90;;;;;;5111687;28;20047;-69
2021/07/21 07:25:01;;;;;;;21.08;14.40;;;27.40;99.90;;;;;;5110695;28;20485;-70
2021/07/21 07:27:30;;;;;;;16.27;13.60;;;27.50;99.90;;;;;;5111233;28;20501;-70
2021/07/21 07:29:56;;;;;;;20.40;12.23;;;27.40;99.90;;;;;;5113164;28;20103;-71
2021/07/21 07:32:22;;;;;;;15.75;14.07;;;27.40;99.90;;;;;;5112920;28;20023;-70
2021/07/21 07:34:48;;;;;;;24.23;14.30;;;27.30;99.90;;;;;;5111500;28;20134;-70
2021/07/21 07:37:14;;;;;;;18.60;14.52;;;26.90;99.90;;;;;;5113085;28;20030;-70
2021/07/21 07:39:40;;;;;;;17.60;13.95;;;27.00;99.90;;;;;;5111239;28;20020;-72
2021/07/21 07:42:06;;;;;;;15.27;13.63;;;27.20;99.90;;;;;;5112955;28;20150;-70
2021/07/21 07:44:31;;;;;;;15.23;13.57;;;27.10;99.90;;;;;;5112769;28;20389;-70
2021/07/21 07:46:58;;;;;;;16.73;14.18;;;27.20;99.90;;;;;;5112876;28;20035;-70
2021/07/21 07:49:24;;;;;;;17.48;15.50;;;27.30;99.90;;;;;;5111289;28;20039;-71
2021/07/21 07:51:50;;;;;;;17.20;13.55;;;27.70;99.90;;;;;;5111409;28;20023;-71
2021/07/21 07:54:18;;;;;;;20.10;15.52;;;27.90;99.90;;;;;;5112827;28;20099;-71
2021/07/21 07:56:44;;;;;;;13.43;12.23;;;27.50;99.90;;;;;;5112661;28;20027;-70
2021/07/21 07:59:10;;;;;;;16.98;15.23;;;27.20;99.90;;;;;;5112367;28;20118;-71
2021/07/21 08:01:36;;;;;;;17.50;14.68;;;27.10;99.90;;;;;;5112803;28;20047;-71
2021/07/21 08:04:02;;;;;;;18.45;13.25;;;27.20;99.90;;;;;;5111303;28;20015;-71
2021/07/21 08:06:28;;;;;;;16.58;13.50;;;27.00;99.90;;;;;;5112845;28;20110;-71
2021/07/21 08:08:53;;;;;;;12.80;11.52;;;26.90;99.90;;;;;;5112671;28;20024;-71
2021/07/21 08:11:19;;;;;;;16.77;13.40;;;26.70;99.90;;;;;;5110946;28;20066;-70
2021/07/21 08:13:45;;;;;;;17.20;14.93;;;26.70;99.90;;;;;;5112446;28;20028;-70
2021/07/21 08:16:12;;;;;;;17.77;13.00;;;26.80;99.90;;;;;;5111378;28;20460;-70
2021/07/21 08:18:38;;;;;;;15.90;13.68;;;26.90;99.90;;;;;;5112711;28;20039;-71
2021/07/21 08:21:05;;;;;;;16.30;14.57;;;27.00;99.90;;;;;;5112625;28;20107;-71
2021/07/21 08:23:32;;;;;;;15.80;13.02;;;27.10;99.90;;;;;;5112604;28;20044;-71
2021/07/21 08:25:58;;;;;;;15.90;14.18;;;27.20;99.90;;;;;;5116175;28;20393;-71
2021/07/21 08:28:24;;;;;;;16.67;15.00;;;27.30;99.90;;;;;;5112037;28;20080;-70
2021/07/21 08:30:49;;;;;;;18.40;13.77;;;27.40;99.90;;;;;;5107619;28;20519;-71
2021/07/21 08:33:15;;;;;;;16.00;14.27;;;27.30;99.90;;;;;;5111739;28;20430;-71
2021/07/21 08:35:42;;;;;;;15.00;13.52;;;27.30;99.90;;;;;;5112105;28;20100;-72
2021/07/21 08:38:08;;;;;;;16.23;14.63;;;27.30;99.90;;;;;;5109960;28;20107;-71
2021/07/21 08:40:36;;;;;;;17.48;13.45;;;27.40;99.90;;;;;;5111831;28;20031;-70
2021/07/21 08:43:04;;;;;;;19.73;14.98;;;27.40;99.90;;;;;;5112522;28;20104;-70
2021/07/21 08:45:30;;;;;;;20.23;14.45;;;27.40;99.90;;;;;;5111654;28;20064;-71
2021/07/21 08:47:56;;;;;;;16.45;14.50;;;27.50;99.90;;;;;;5111972;27;20027;-71
2021/07/21 08:50:22;;;;;;;15.48;13.98;;;27.60;99.90;;;;;;5112254;28;20641;-70
2021/07/21 08:52:50;;;;;;;16.98;12.57;;;27.80;99.90;;;;;;5111304;28;20245;-70
2021/07/21 08:55:16;;;;;;;18.35;13.40;;;27.70;99.90;;;;;;5110559;28;20508;-73
2021/07/21 08:57:42;;;;;;;14.45;13.15;;;27.70;99.90;;;;;;5110057;28;20110;-71
2021/07/21 09:00:12;;;;;;;19.35;13.43;;;27.60;99.90;;;;;;5111590;28;20090;-71
2021/07/21 09:02:38;;;;;;;16.92;14.63;;;27.60;99.90;;;;;;5110410;28;20373;-70
2021/07/21 09:05:06;;;;;;;14.20;12.73;;;27.70;99.90;;;;;;5110426;28;20023;-72
2021/07/21 09:07:35;;;;;;;14.32;12.43;;;27.70;99.90;;;;;;5110036;28;20031;-70
2021/07/21 09:10:01;;;;;;;17.98;13.50;;;27.80;99.90;;;;;;5111507;28;20046;-71
2021/07/21 09:12:27;;;;;;;30.63;26.05;;;27.80;99.90;;;;;;5110251;28;20031;-71
2021/07/21 09:14:53;;;;;;;21.17;18.88;;;27.80;99.90;;;;;;5111725;28;20039;-71
2021/07/21 09:17:21;;;;;;;15.70;13.88;;;27.90;99.90;;;;;;5109994;28;20566;-72
2021/07/21 09:19:49;;;;;;;15.45;12.90;;;27.90;99.90;;;;;;5110208;28;20481;-71
2021/07/21 09:22:23;;;;;;;15.02;13.05;;;27.90;99.90;;;;;;5110241;28;20131;-71
2021/07/21 09:25:14;;;;;;;15.85;14.35;;;27.90;99.90;;;;;;5111453;28;20266;-71
2021/07/21 09:27:45;;;;;;;33.58;29.30;;;27.90;99.90;;;;;;5110369;28;20483;-72
2021/07/21 09:30:14;;;;;;;27.93;22.83;;;28.00;99.90;;;;;;5111428;28;20096;-70
2021/07/21 09:32:58;;;;;;;17.60;13.70;;;28.20;99.90;;;;;;5111266;28;20098;-71
2021/07/21 09:35:33;;;;;;;16.85;12.90;;;28.20;99.90;;;;;;5110483;28;20027;-72
2021/07/21 09:38:18;;;;;;;14.02;12.60;;;28.50;99.90;;;;;;5119155;28;20426;-71
2021/07/21 09:40:47;;;;;;;14.50;12.25;;;28.50;99.90;;;;;;5121391;28;20145;-71
2021/07/21 09:43:16;;;;;;;14.63;12.63;;;28.50;99.90;;;;;;5121116;28;20027;-71
2021/07/21 09:45:43;;;;;;;18.95;15.38;;;28.60;99.90;;;;;;5110196;28;20028;-70
2021/07/21 09:48:10;;;;;;;16.42;14.73;;;28.40;99.90;;;;;;5111454;28;20434;-72
2021/07/21 09:50:42;;;;;;;21.63;18.30;;;28.40;99.90;;;;;;5115282;28;20124;-72
2021/07/21 09:53:12;;;;;;;25.85;15.50;;;28.60;99.90;;;;;;5115599;27;20027;-71
2021/07/21 09:55:49;;;;;;;25.17;19.80;;;28.70;99.90;;;;;;5115170;28;20485;-71
2021/07/21 09:58:24;;;;;;;17.63;14.93;;;28.50;99.90;;;;;;5113434;28;20027;-70
2021/07/21 10:00:50;;;;;;;14.77;13.25;;;28.60;99.90;;;;;;5115263;28;20068;-70
2021/07/21 10:03:21;;;;;;;13.50;12.30;;;28.50;99.90;;;;;;5114852;28;20027;-70
2021/07/21 10:05:57;;;;;;;16.08;13.85;;;28.50;99.90;;;;;;5113631;28;20077;-71
2021/07/21 10:08:44;;;;;;;16.02;14.10;;;28.50;99.90;;;;;;5113536;28;20035;-71
2021/07/21 10:11:22;;;;;;;14.20;11.75;;;28.70;99.90;;;;;;5116211;28;20030;-72
2021/07/21 10:13:53;;;;;;;13.55;11.75;;;28.60;99.90;;;;;;5113685;28;20027;-71
2021/07/21 10:16:43;;;;;;;19.52;12.82;;;28.60;99.90;;;;;;5115356;28;20024;-71
2021/07/21 10:19:30;;;;;;;17.45;11.85;;;28.60;99.90;;;;;;5114996;28;20031;-70
2021/07/21 10:21:58;;;;;;;13.75;12.35;;;28.80;99.90;;;;;;5115352;28;20031;-72
2021/07/21 10:24:26;;;;;;;12.25;10.98;;;28.70;99.90;;;;;;5114666;28;20477;-70
2021/07/21 10:26:54;;;;;;;11.93;10.75;;;28.60;99.90;;;;;;5114809;28;20457;-71
2021/07/21 10:29:21;;;;;;;20.38;12.73;;;28.60;99.90;;;;;;5113397;28;20475;-71
2021/07/21 10:31:47;;;;;;;25.15;13.50;;;28.80;99.90;;;;;;5109837;28;20118;-71
2021/07/21 10:34:18;;;;;;;13.48;12.15;;;28.90;99.90;;;;;;5113557;28;20427;-71
2021/07/21 10:36:43;;;;;;;14.45;12.95;;;28.90;99.90;;;;;;5113097;28;20035;-73
2021/07/21 10:39:14;;;;;;;18.10;11.90;;;29.00;99.90;;;;;;5112768;28;20164;-71
2021/07/21 10:41:42;;;;;;;14.55;12.05;;;29.00;99.90;;;;;;5114013;28;20066;-69
2021/07/21 10:44:09;;;;;;;13.55;12.35;;;29.00;99.90;;;;;;5114143;28;20027;-71
2021/07/21 10:46:40;;;;;;;15.02;12.52;;;29.00;99.90;;;;;;5113900;28;20027;-71
2021/07/21 10:49:22;;;;;;;15.13;13.30;;;29.30;99.90;;;;;;5113905;28;20385;-71
2021/07/21 11:00:12;;;;;;;12.35;11.15;;;29.40;99.90;;;;;;5113469;28;20035;-71
2021/07/21 11:02:38;;;;;;;12.40;11.23;;;29.50;99.90;;;;;;5113713;28;20393;-71
2021/07/21 11:05:05;;;;;;;13.98;10.57;;;29.40;99.90;;;;;;5112333;28;20024;-69
2021/07/21 11:07:53;;;;;;;18.88;11.27;;;29.50;99.90;;;;;;5113897;28;20080;-70
2021/07/21 11:10:41;;;;;;;14.02;11.75;;;29.40;99.90;;;;;;5111917;28;20435;-70
2021/07/21 11:13:09;;;;;;;21.40;11.50;;;29.30;99.90;;;;;;5113528;28;20020;-72
2021/07/21 11:15:35;;;;;;;15.75;11.93;;;29.60;99.90;;;;;;5112131;28;20482;-72
2021/07/21 11:18:22;;;;;;;14.63;11.60;;;29.90;99.90;;;;;;5112005;28;20032;-71
2021/07/21 11:21:00;;;;;;;12.52;11.23;;;29.90;99.90;;;;;;5113753;28;20028;-71
2021/07/21 11:23:51;;;;;;;16.80;11.43;;;30.00;99.90;;;;;;5111991;28;20047;-72
2021/07/21 11:26:32;;;;;;;17.77;11.60;;;30.10;99.90;;;;;;5113851;28;20132;-70
2021/07/21 11:29:18;;;;;;;12.02;10.68;;;30.30;99.90;;;;;;5113077;28;20492;-70
2021/07/21 11:31:53;;;;;;;13.13;11.77;;;30.70;99.90;;;;;;5112948;28;20134;-70
2021/07/21 11:34:33;;;;;;;11.07;9.95;;;31.00;99.90;;;;;;5113514;28;20027;-73
2021/07/21 11:37:00;;;;;;;14.15;11.15;;;31.10;99.90;;;;;;5113601;28;20027;-72
2021/07/21 11:39:50;;;;;;;10.57;9.68;;;31.10;99.90;;;;;;5111730;28;20030;-72
2021/07/21 11:42:30;;;;;;;13.88;11.15;;;31.20;99.90;;;;;;5113325;28;20028;-70
2021/07/21 11:45:12;;;;;;;16.10;11.95;;;31.30;99.90;;;;;;5113502;28;20028;-71
2021/07/21 11:47:40;;;;;;;12.63;10.27;;;31.30;99.90;;;;;;5113340;28;20035;-70
2021/07/21 11:50:14;;;;;;;16.15;12.30;;;31.10;99.90;;;;;;5111869;28;20393;-71
2021/07/21 11:52:40;;;;;;;15.50;11.43;;;31.00;99.90;;;;;;5113166;28;20481;-71
2021/07/21 11:55:07;;;;;;;11.68;10.50;;;31.20;99.90;;;;;;5111635;28;20123;-70
2021/07/21 11:57:33;;;;;;;17.05;11.75;;;31.30;99.90;;;;;;5110968;28;20442;-69
2021/07/21 12:00:02;;;;;;;15.65;11.75;;;31.30;99.90;;;;;;5113125;28;20058;-70
2021/07/21 12:02:29;;;;;;;15.70;10.27;;;31.00;99.90;;;;;;5112785;28;20027;-71
2021/07/21 12:04:58;;;;;;;14.60;10.43;;;31.10;99.90;;;;;;5112741;28;20035;-71
2021/07/21 12:07:32;;;;;;;11.52;10.43;;;31.10;99.90;;;;;;5112695;28;20027;-70
2021/07/21 12:09:57;;;;;;;17.88;10.70;;;31.20;99.90;;;;;;5110673;28;20023;-70
2021/07/21 12:12:26;;;;;;;13.95;11.13;;;31.40;99.90;;;;;;5110116;28;20027;-70
2021/07/21 12:14:54;;;;;;;13.55;10.60;;;31.60;99.90;;;;;;5112277;28;20548;-71
2021/07/21 12:17:22;;;;;;;16.33;11.30;;;31.70;99.90;;;;;;5112330;27;20458;-72
2021/07/21 12:19:59;;;;;;;13.07;11.40;;;31.90;99.90;;;;;;5110699;28;20024;-71
2021/07/21 12:22:30;;;;;;;20.85;11.18;;;32.00;99.90;;;;;;5112212;28;20027;-71
2021/07/21 12:24:58;;;;;;;16.52;10.68;;;32.00;99.90;;;;;;5112403;28;20098;-70
2021/07/21 12:27:32;;;;;;;18.25;11.85;;;31.80;99.90;;;;;;5111867;28;20032;-71
2021/07/21 12:30:08;;;;;;;17.50;11.02;;;31.70;99.90;;;;;;5110468;28;20054;-69
2021/07/21 12:32:34;;;;;;;14.55;11.93;;;31.50;99.90;;;;;;5098833;28;20031;-71
2021/07/21 12:34:59;;;;;;;15.82;11.15;;;31.30;99.90;;;;;;5112233;28;20019;-71
2021/07/21 12:37:28;;;;;;;22.67;11.23;;;31.30;99.90;;;;;;5111458;27;20024;-71
2021/07/21 12:39:55;;;;;;;25.02;12.57;;;31.20;99.90;;;;;;5111771;28;20106;-72
2021/07/21 12:42:24;;;;;;;17.95;11.50;;;31.20;99.90;;;;;;5111556;28;20385;-71
2021/07/21 12:44:56;;;;;;;26.55;11.68;;;31.20;99.90;;;;;;5110094;28;20020;-71
2021/07/21 12:47:27;;;;;;;19.90;11.13;;;31.20;99.90;;;;;;5111666;28;20034;-72
2021/07/21 12:50:01;;;;;;;19.17;11.90;;;31.10;99.90;;;;;;5110452;28;20023;-71